Terminal Aerodrome Forecast
Issued by NWS Green Bay, WI

Home | Current Version | Previous Version | Graphics & Text | Print | Product List | Glossary On
Versions: 1 2 3 4 5 6 7 8 9 10 11 12 13 14 15 16 17 18 19 20
000
FTUS43 KGRB 210312 AAA
TAFGRB
TAF AMD
KGRB 210312Z 2103/2124 20012G20KT P6SM BKN200 WS013/24050KT
     FM210700 23013G19KT P6SM BKN200 WS013/27040KT
     FM211100 26013G22KT P6SM SCT200
     FM211500 29017G27KT P6SM BKN050
     FM212200 31013G23KT P6SM SCT040=

USA.gov is the U.S. government's official web portal to all federal, state and local government web resources and services.